Capitol Logistics 1852

Operating for CJT



KCVG
Cincinnati/Northern Kentucky International Airport
Covington, Kentucky
MMMX
Benito Juárez International Airport
Mexico City,

Activity Log

Date Flight Route Aircraft Duration
No Flights Yet

Route Details

Aircraft Information
Group: North America Fleet
Types: B738,B752,B762,B763
Route Data
Demand: M
Distance: 1396nm
Duration: 3h 25m
Recm'd Route: CHCLL5 BWG CRAMM SWB IAH J29 PSX J177 RADAS J177 TAM UT100 ENAGA ENAGA1A
Origin Wx: KCVG 272114Z 26007KT 9SM -RA FEW023 BKN085 BKN130 OVC190 16/16 A2978 RMK AO2 TSE06 TS MOV E CB MOV E CB DSNT NE-E P0001 T01610156
Dest. Wx: MMMX 272046Z 34017KT 8SM SKC 27/M03 A3025 NOSIG RMK SLP041 57018 902 HZY ISOL CU
Notes:

Financial History
Total Freight: 0lbs
Average Load: 0lbs/flt
Fuel Used: 0lbs
Avg. Fuel Used: 0lbs/flt
Fuel Expense: $0
Avg. Fuel Expense: $0
Avg. Fuel Cost: $0/lbs
Total Gross Income: $0
Pilot Pay: $0
Total Expenses: $0
Total Revenue: $0
Average Revenue: $0